Trafford, Alabama
Current Conditions -  °F | °C
As of 7:53 AM on Monday 26 Jan 2015 (Local Time) from KBHM Reporting Station
Overcast Overcast  
Wind Chill:   Ceiling: 1300
Heat Index:   Visibility: 9mi
Dew Point:   Wind: 17mph
Humidity: 82%   Direction: 330°NNW
Pressure: 29.98"   Gusts: 24mph
Location:  33.82°N, 86.74°W
Report Text: KBHM 261353Z 33015G21KT 9SM OVC013 05/02 A2998 RMK AO2 DZB05E17 SLP151 P0000 T00500022
Loading
Personal Weather Stations






























Interactive Weather Map New forecast layout! Learn more

10-Day Weather Forecast

Advertisements
Track Severe Weather on mobile